createdAt,value
2017-01-05T00:00:15.693Z,-0.72
2017-01-05T00:00:56.269Z,-0.7
2017-01-05T00:01:37.186Z,-0.72
2017-01-05T00:02:17.809Z,-0.75
2017-01-05T00:02:58.502Z,-0.7
2017-01-05T00:03:39.064Z,-0.71
2017-01-05T00:04:19.731Z,-0.75
2017-01-05T00:05:00.366Z,-0.71
2017-01-05T00:05:40.945Z,-0.82
2017-01-05T00:06:21.588Z,-0.78
2017-01-05T00:07:02.328Z,-0.77
2017-01-05T00:07:42.918Z,-0.74
2017-01-05T00:08:23.545Z,-0.77
2017-01-05T00:09:04.183Z,-0.75
2017-01-05T00:09:44.800Z,-0.75
2017-01-05T00:10:25.721Z,-0.77
2017-01-05T00:11:06.299Z,-0.75
2017-01-05T00:11:46.955Z,-0.77
2017-01-05T00:12:27.524Z,-0.75
2017-01-05T00:13:08.118Z,-0.77
2017-01-05T00:13:48.738Z,-0.83
2017-01-05T00:14:29.425Z,-0.86
2017-01-05T00:15:10.177Z,-0.9
2017-01-05T00:15:51.786Z,-0.86
2017-01-05T00:16:32.444Z,-0.86
2017-01-05T00:17:13.045Z,-0.82
2017-01-05T00:17:53.644Z,-0.86
2017-01-05T00:18:34.466Z,-0.9
2017-01-05T00:19:15.062Z,-0.89
2017-01-05T00:19:55.715Z,-0.83
2017-01-05T00:20:36.373Z,-0.83
2017-01-05T00:21:17.021Z,-0.86
2017-01-05T00:21:57.675Z,-0.94
2017-01-05T00:22:38.329Z,-0.99
2017-01-05T00:23:18.981Z,-0.97
2017-01-05T00:23:59.625Z,-0.91
2017-01-05T00:24:40.430Z,-0.9
2017-01-05T00:26:28.526Z,-0.96
2017-01-05T00:27:09.118Z,-0.89
2017-01-05T00:27:49.804Z,-0.97
2017-01-05T00:28:31.402Z,-0.94
2017-01-05T00:29:11.998Z,-0.99
2017-01-05T00:29:52.571Z,-0.99
2017-01-05T00:30:33.224Z,-0.89
2017-01-05T00:31:13.904Z,-0.96
2017-01-05T00:31:54.500Z,-0.86
2017-01-05T00:32:35.056Z,-0.94
2017-01-05T00:33:15.807Z,-0.97
2017-01-05T00:33:56.505Z,-1.04
2017-01-05T00:34:37.303Z,-0.97
2017-01-05T00:35:18.060Z,-0.96
2017-01-05T00:35:58.815Z,-1.02
2017-01-05T00:36:39.570Z,-0.9
2017-01-05T00:37:20.326Z,-0.97
2017-01-05T00:38:01.089Z,-0.93
2017-01-05T00:38:41.836Z,-0.94
2017-01-05T00:39:22.591Z,-0.97
2017-01-05T00:40:03.309Z,-0.86
2017-01-05T00:40:44.029Z,-0.89
2017-01-05T00:41:24.771Z,-0.86
2017-01-05T00:42:05.509Z,-0.9
2017-01-05T00:42:46.284Z,-0.83
2017-01-05T00:43:27.048Z,-0.9
2017-01-05T00:44:08.444Z,-0.83
2017-01-05T00:44:49.144Z,-0.8
2017-01-05T00:45:29.773Z,-0.89
2017-01-05T00:46:10.448Z,-0.82
2017-01-05T00:46:51.205Z,-0.83
2017-01-05T00:47:31.776Z,-0.86
2017-01-05T00:48:12.536Z,-0.86
2017-01-05T00:48:53.271Z,-0.86
2017-01-05T00:49:34.024Z,-0.86
2017-01-05T00:50:14.777Z,-0.85
2017-01-05T00:50:55.535Z,-0.86
2017-01-05T00:51:36.288Z,-0.85
2017-01-05T00:52:17.046Z,-0.78
2017-01-05T00:52:57.796Z,-0.86
2017-01-05T00:53:38.553Z,-0.86
2017-01-05T00:54:19.170Z,-0.82
2017-01-05T00:54:59.887Z,-0.89
2017-01-05T00:55:40.569Z,-0.83
2017-01-05T00:56:21.268Z,-0.85
2017-01-05T00:57:01.821Z,-0.83
2017-01-05T00:57:42.779Z,-0.91
2017-01-05T00:58:23.485Z,-0.85
2017-01-05T00:59:04.187Z,-0.83
2017-01-05T00:59:44.947Z,-0.83
2017-01-05T01:00:25.694Z,-0.89
2017-01-05T01:01:06.458Z,-0.85
2017-01-05T01:01:47.213Z,-0.78
2017-01-05T01:02:27.976Z,-0.91
2017-01-05T01:03:08.723Z,-0.86
2017-01-05T01:03:49.477Z,-0.85
2017-01-05T01:04:30.254Z,-0.91
2017-01-05T01:05:12.029Z,-0.85
2017-01-05T01:05:52.714Z,-0.9
2017-01-05T01:06:33.416Z,-0.85
2017-01-05T01:07:13.975Z,-0.8
2017-01-05T01:07:54.749Z,-0.78
2017-01-05T01:08:35.450Z,-0.72
2017-01-05T01:09:16.034Z,-0.8
2017-01-05T01:09:56.687Z,-0.68
2017-01-05T01:10:37.343Z,-0.67
2017-01-05T01:11:17.993Z,-0.68
2017-01-05T01:11:58.650Z,-0.68
2017-01-05T01:12:39.294Z,-0.67
2017-01-05T01:13:19.952Z,-0.57
2017-01-05T01:14:00.605Z,-0.65
2017-01-05T01:14:41.214Z,-0.59
2017-01-05T01:15:21.892Z,-0.61
2017-01-05T01:16:02.522Z,-0.56
2017-01-05T01:16:43.114Z,-0.56
2017-01-05T01:17:23.692Z,-0.54
2017-01-05T01:18:04.332Z,-0.53
2017-01-05T01:18:44.920Z,-0.54
2017-01-05T01:19:25.525Z,-0.43
2017-01-05T01:20:06.173Z,-0.52
2017-01-05T01:20:46.828Z,-0.39
2017-01-05T01:21:27.477Z,-0.46
2017-01-05T01:22:08.134Z,-0.47
2017-01-05T01:22:48.787Z,-0.39
2017-01-05T01:23:29.440Z,-0.43
2017-01-05T01:24:10.094Z,-0.44
2017-01-05T01:24:50.742Z,-0.44
2017-01-05T01:25:31.399Z,-0.46
2017-01-05T01:26:12.053Z,-0.41
2017-01-05T01:26:52.752Z,-0.47
2017-01-05T01:27:34.423Z,-0.39
2017-01-05T01:28:15.070Z,-0.36
2017-01-05T01:28:55.727Z,-0.41
2017-01-05T01:29:36.295Z,-0.5
2017-01-05T01:30:16.961Z,-0.47
2017-01-05T01:30:57.614Z,-0.47
2017-01-05T01:31:38.235Z,-0.52
2017-01-05T01:32:18.936Z,-0.44
2017-01-05T01:32:59.665Z,-0.54
2017-01-05T01:33:40.430Z,-0.57
2017-01-05T01:34:21.119Z,-0.56
2017-01-05T01:35:01.764Z,-0.59
2017-01-05T01:35:42.561Z,-0.56
2017-01-05T01:36:23.143Z,-0.56
2017-01-05T01:37:03.783Z,-0.64
2017-01-05T01:37:44.471Z,-0.65
2017-01-05T01:38:25.180Z,-0.64
2017-01-05T01:39:05.740Z,-0.54
2017-01-05T01:39:46.439Z,-0.57
2017-01-05T01:40:27.151Z,-0.61
2017-01-05T01:41:07.824Z,-0.61
2017-01-05T01:41:48.564Z,-0.52
2017-01-05T01:42:29.212Z,-0.53
2017-01-05T01:43:09.966Z,-0.52
2017-01-05T01:43:50.637Z,-0.56
2017-01-05T01:44:31.272Z,-0.56
2017-01-05T01:45:11.938Z,-0.56
2017-01-05T01:45:52.590Z,-0.54
2017-01-05T01:46:33.225Z,-0.54
2017-01-05T01:47:13.886Z,-0.52
2017-01-05T01:47:54.566Z,-0.52
2017-01-05T01:48:36.227Z,-0.47
2017-01-05T01:49:17.931Z,-0.44
2017-01-05T01:49:58.628Z,-0.47
2017-01-05T01:50:39.192Z,-0.38
2017-01-05T01:51:19.838Z,-0.35
2017-01-05T01:52:00.500Z,-0.38
2017-01-05T01:52:41.028Z,-0.32
2017-01-05T01:53:21.705Z,-0.35
2017-01-05T01:54:02.347Z,-0.35
2017-01-05T01:54:42.909Z,-0.36
2017-01-05T01:55:23.602Z,-0.26
2017-01-05T01:56:04.303Z,-0.28
2017-01-05T01:56:44.853Z,-0.26
2017-01-05T01:57:25.516Z,-0.28
2017-01-05T01:58:06.157Z,-0.31
2017-01-05T01:58:47.246Z,-0.29
2017-01-05T01:59:27.889Z,-0.23
2017-01-05T02:00:08.577Z,-0.21
2017-01-05T02:00:49.283Z,-0.23
2017-01-05T02:01:29.816Z,-0.23
2017-01-05T02:02:10.515Z,-0.21
2017-01-05T02:02:51.201Z,-0.23
2017-01-05T02:03:31.887Z,-0.18
2017-01-05T02:05:30.511Z,-0.17
2017-01-05T02:06:11.228Z,-0.26
2017-01-05T02:06:51.889Z,-0.2
2017-01-05T02:07:32.532Z,-0.23
2017-01-05T02:08:13.185Z,-0.2
2017-01-05T02:08:53.838Z,-0.25
2017-01-05T02:09:34.490Z,-0.21
2017-01-05T02:10:15.143Z,-0.2
2017-01-05T02:10:55.899Z,-0.18
2017-01-05T02:11:36.573Z,-0.26
2017-01-05T02:12:17.307Z,-0.26
2017-01-05T02:12:57.958Z,-0.18
2017-01-05T02:13:38.609Z,-0.23
2017-01-05T02:14:19.272Z,-0.36
2017-01-05T02:14:59.829Z,-0.25
2017-01-05T02:15:40.479Z,-0.32
2017-01-05T02:16:21.122Z,-0.38
2017-01-05T02:17:01.684Z,-0.35
2017-01-05T02:17:42.360Z,-0.29
2017-01-05T02:18:23.083Z,-0.23
2017-01-05T02:19:03.644Z,-0.28
2017-01-05T02:19:44.473Z,-0.26
2017-01-05T02:20:25.142Z,-0.28
2017-01-05T02:21:05.681Z,-0.2
2017-01-05T02:21:46.370Z,-0.18
2017-01-05T02:22:26.997Z,-0.23
2017-01-05T02:23:07.559Z,-0.21
2017-01-05T02:23:48.256Z,-0.15
2017-01-05T02:24:28.955Z,-0.23
2017-01-05T02:25:09.518Z,-0.18
2017-01-05T02:25:50.171Z,-0.26
2017-01-05T02:26:30.913Z,-0.28
2017-01-05T02:27:12.398Z,-0.2
2017-01-05T02:27:53.054Z,-0.26
2017-01-05T02:28:33.795Z,-0.21
2017-01-05T02:29:14.332Z,-0.28
2017-01-05T02:29:55.002Z,-0.26
2017-01-05T02:30:35.648Z,-0.18
2017-01-05T02:31:16.201Z,-0.31
2017-01-05T02:31:56.943Z,-0.18
2017-01-05T02:32:37.608Z,-0.31
2017-01-05T02:33:19.138Z,-0.23
2017-01-05T02:33:59.875Z,-0.26
2017-01-05T02:34:40.597Z,-0.21
2017-01-05T02:35:21.182Z,-0.18
2017-01-05T02:36:01.911Z,-0.25
2017-01-05T02:36:42.604Z,-0.26
2017-01-05T02:37:23.309Z,-0.23
2017-01-05T02:38:03.868Z,-0.26
2017-01-05T02:38:44.755Z,-0.28
2017-01-05T02:39:25.433Z,-0.28
2017-01-05T02:40:06.006Z,-0.32
2017-01-05T02:40:47.709Z,-0.23
2017-01-05T02:41:28.354Z,-0.36
2017-01-05T02:42:08.911Z,-0.25
2017-01-05T02:42:49.569Z,-0.25
2017-01-05T02:43:30.307Z,-0.36
2017-01-05T02:44:10.861Z,-0.31
2017-01-05T02:44:51.651Z,-0.38
2017-01-05T02:45:32.329Z,-0.35
2017-01-05T02:46:13.031Z,-0.47
2017-01-05T02:46:53.604Z,-0.39
2017-01-05T02:47:34.229Z,-0.44
2017-01-05T02:48:14.941Z,-0.47
2017-01-05T02:48:55.633Z,-0.56
2017-01-05T02:49:36.288Z,-0.57
2017-01-05T02:50:16.952Z,-0.64
2017-01-05T02:50:57.655Z,-0.64
2017-01-05T02:51:38.350Z,-0.64
2017-01-05T02:52:18.894Z,-0.59
2017-01-05T02:52:59.673Z,-0.7
2017-01-05T02:53:40.986Z,-0.71
2017-01-05T02:54:22.495Z,-0.7
2017-01-05T02:55:03.053Z,-0.68
2017-01-05T02:55:43.810Z,-0.71
2017-01-05T02:56:24.541Z,-0.74
2017-01-05T02:57:05.217Z,-0.71
2017-01-05T02:57:45.761Z,-0.67
2017-01-05T02:58:26.425Z,-0.74
2017-01-05T02:59:07.224Z,-0.67
2017-01-05T02:59:47.925Z,-0.71
2017-01-05T03:00:28.462Z,-0.67
2017-01-05T03:01:09.139Z,-0.68
2017-01-05T03:01:50.458Z,-0.65
2017-01-05T03:02:31.053Z,-0.75
2017-01-05T03:03:12.404Z,-0.7
2017-01-05T03:03:53.083Z,-0.71
2017-01-05T03:04:33.785Z,-0.65
2017-01-05T03:05:14.486Z,-0.65
2017-01-05T03:05:55.039Z,-0.71
2017-01-05T03:06:35.694Z,-0.65
2017-01-05T03:07:16.969Z,-0.72
2017-01-05T03:07:57.712Z,-0.7
2017-01-05T03:08:38.245Z,-0.68
2017-01-05T03:09:18.941Z,-0.72
2017-01-05T03:10:00.645Z,-0.7
2017-01-05T03:10:41.351Z,-0.71
2017-01-05T03:11:21.876Z,-0.68
2017-01-05T03:12:02.556Z,-0.72
2017-01-05T03:12:43.977Z,-0.78
2017-01-05T03:13:25.596Z,-0.71
2017-01-05T03:14:06.172Z,-0.75
2017-01-05T03:14:46.925Z,-0.75
2017-01-05T03:15:27.657Z,-0.78
2017-01-05T03:16:08.229Z,-0.78
2017-01-05T03:16:48.883Z,-0.74
2017-01-05T03:17:29.611Z,-0.91
2017-01-05T03:18:10.187Z,-0.86
2017-01-05T03:18:50.839Z,-0.83
2017-01-05T03:19:31.475Z,-0.93
2017-01-05T03:20:12.105Z,-0.89
2017-01-05T03:20:52.786Z,-0.82
2017-01-05T03:21:33.487Z,-0.91
2017-01-05T03:22:14.186Z,-0.97
2017-01-05T03:22:54.767Z,-0.91
2017-01-05T03:23:35.489Z,-0.96
2017-01-05T03:24:16.197Z,-0.97
2017-01-05T03:24:57.515Z,-1.01
2017-01-05T03:25:38.066Z,-0.97
2017-01-05T03:26:18.727Z,-1.07
2017-01-05T03:26:59.426Z,-1.02
2017-01-05T03:27:40.120Z,-1.07
2017-01-05T03:28:20.679Z,-1.07
2017-01-05T03:29:01.349Z,-1.07
2017-01-05T03:29:42.045Z,-1.07
2017-01-05T03:30:22.738Z,-1.09
2017-01-05T03:31:03.307Z,-1.08
2017-01-05T03:31:44.068Z,-1.09
2017-01-05T03:32:24.661Z,-1.14
2017-01-05T03:33:05.350Z,-1.09
2017-01-05T03:33:45.914Z,-1.09
2017-01-05T03:34:26.663Z,-1.12
2017-01-05T03:35:07.420Z,-1.14
2017-01-05T03:35:48.179Z,-1.17
2017-01-05T03:36:28.819Z,-1.08
2017-01-05T03:37:09.496Z,-1.08
2017-01-05T03:37:50.232Z,-1.11
2017-01-05T03:38:30.887Z,-1.07
2017-01-05T03:39:11.536Z,-1.08
2017-01-05T03:39:52.202Z,-1.04
2017-01-05T03:40:32.845Z,-1.07
2017-01-05T03:41:13.497Z,-1.15
2017-01-05T03:41:54.184Z,-1.07
2017-01-05T03:42:34.904Z,-1.15
2017-01-05T03:43:15.550Z,-1.07
2017-01-05T03:43:56.211Z,-1.17
2017-01-05T03:44:36.859Z,-1.11
2017-01-05T03:45:17.509Z,-1.07
2017-01-05T03:45:58.859Z,-1.02
2017-01-05T03:46:39.648Z,-1.05
2017-01-05T03:47:24.999Z,-1.02
2017-01-05T03:48:05.571Z,-1.04
2017-01-05T03:48:46.303Z,-1.01
2017-01-05T03:49:27.049Z,-0.97
2017-01-05T03:50:07.781Z,-1.02
2017-01-05T03:50:48.495Z,-0.97
2017-01-05T03:51:30.157Z,-1.02
2017-01-05T03:52:10.794Z,-0.99
2017-01-05T03:52:52.474Z,-0.93
2017-01-05T03:53:37.858Z,-0.99
2017-01-05T03:54:18.598Z,-1.02
2017-01-05T03:55:00.374Z,-0.99
2017-01-05T03:55:42.102Z,-0.9
2017-01-05T03:56:24.854Z,-0.94
2017-01-05T03:57:05.405Z,-0.96
2017-01-05T03:57:46.094Z,-0.86
2017-01-05T03:58:27.402Z,-0.9
2017-01-05T03:59:08.158Z,-0.83
2017-01-05T03:59:48.842Z,-0.82
2017-01-05T04:00:29.383Z,-0.78
2017-01-05T04:01:11.502Z,-0.77
2017-01-05T04:01:52.249Z,-0.78
2017-01-05T04:02:34.034Z,-0.74
2017-01-05T04:03:14.767Z,-0.74
2017-01-05T04:03:56.437Z,-0.75
2017-01-05T04:04:39.213Z,-0.71
2017-01-05T04:05:19.914Z,-0.75
2017-01-05T04:06:00.648Z,-0.65
2017-01-05T04:06:42.344Z,-0.75
2017-01-05T04:07:23.081Z,-0.67
2017-01-05T04:08:03.843Z,-0.68
2017-01-05T04:08:44.508Z,-0.72
2017-01-05T04:09:25.283Z,-0.67
2017-01-05T04:10:06.941Z,-0.68
2017-01-05T04:10:54.459Z,-0.7
2017-01-05T04:11:36.139Z,-0.72
2017-01-05T04:12:16.805Z,-0.74
2017-01-05T04:13:02.369Z,-0.74
2017-01-05T04:13:43.090Z,-0.78
2017-01-05T04:14:29.400Z,-0.74
2017-01-05T04:15:10.159Z,-0.75
2017-01-05T04:15:57.345Z,-0.78
2017-01-05T04:16:38.029Z,-0.83
2017-01-05T04:17:18.679Z,-0.85
2017-01-05T04:18:00.368Z,-0.86
2017-01-05T04:18:41.033Z,-0.9
2017-01-05T04:19:22.710Z,-0.86
2017-01-05T04:20:03.366Z,-0.85
2017-01-05T04:20:44.004Z,-0.85
2017-01-05T04:21:24.654Z,-0.96
2017-01-05T04:22:05.307Z,-0.91
2017-01-05T04:22:45.962Z,-0.86
2017-01-05T04:23:26.614Z,-0.82
2017-01-05T04:24:07.269Z,-0.82
2017-01-05T04:24:47.919Z,-0.89
2017-01-05T04:25:30.427Z,-0.85
2017-01-05T04:26:11.076Z,-0.91
2017-01-05T04:26:51.743Z,-0.93
2017-01-05T04:27:32.379Z,-0.96
2017-01-05T04:28:13.028Z,-0.99
2017-01-05T04:28:53.715Z,-0.99
2017-01-05T04:29:35.225Z,-1.04
2017-01-05T04:30:15.857Z,-1.02
2017-01-05T04:30:56.439Z,-1.07
2017-01-05T04:31:37.023Z,-1.07
2017-01-05T04:32:17.673Z,-1.02
2017-01-05T04:32:58.359Z,-1.07
2017-01-05T04:33:38.948Z,-1.07
2017-01-05T04:34:19.515Z,-1.05
2017-01-05T04:35:00.285Z,-1.07
2017-01-05T04:35:41.036Z,-1.09
2017-01-05T04:36:21.702Z,-1.08
2017-01-05T04:37:02.258Z,-1.11
2017-01-05T04:37:43.921Z,-1.04
2017-01-05T04:38:24.595Z,-1.15
2017-01-05T04:39:05.213Z,-1.11
2017-01-05T04:39:45.976Z,-1.07
2017-01-05T04:40:27.585Z,-1.22
2017-01-05T04:41:09.317Z,-1.2
2017-01-05T04:41:49.871Z,-1.17
2017-01-05T04:42:30.526Z,-1.09
2017-01-05T04:43:12.252Z,-1.2
2017-01-05T04:43:53.864Z,-1.17
2017-01-05T04:44:34.442Z,-1.17
2017-01-05T04:45:15.094Z,-1.2
2017-01-05T04:45:55.873Z,-1.22
2017-01-05T04:46:36.578Z,-1.09
2017-01-05T04:47:17.142Z,-1.22
2017-01-05T04:47:57.797Z,-1.14
2017-01-05T04:48:38.395Z,-1.17
2017-01-05T04:49:18.985Z,-1.22
2017-01-05T04:49:59.576Z,-1.12
2017-01-05T04:50:40.228Z,-1.11
2017-01-05T04:51:20.904Z,-1.22
2017-01-05T04:52:01.497Z,-1.08
2017-01-05T04:52:42.059Z,-1.17
2017-01-05T04:53:22.708Z,-1.22
2017-01-05T04:54:03.311Z,-1.19
2017-01-05T04:54:43.902Z,-1.22
2017-01-05T04:55:24.464Z,-1.15
2017-01-05T04:56:05.908Z,-1.2
2017-01-05T04:56:46.537Z,-1.22
2017-01-05T04:57:27.127Z,-1.15
2017-01-05T04:58:07.689Z,-1.27
2017-01-05T04:58:48.356Z,-1.14
2017-01-05T04:59:29.041Z,-1.26
2017-01-05T05:00:09.634Z,-1.19
2017-01-05T05:00:50.200Z,-1.09
2017-01-05T05:01:30.855Z,-1.14
2017-01-05T05:02:11.546Z,-1.09
2017-01-05T05:02:52.248Z,-1.19
2017-01-05T05:03:32.846Z,-1.23
2017-01-05T05:04:13.482Z,-1.23
2017-01-05T05:04:54.157Z,-1.22
2017-01-05T05:05:34.807Z,-1.2
2017-01-05T05:06:15.463Z,-1.23
2017-01-05T05:06:56.120Z,-1.27
2017-01-05T05:07:36.775Z,-1.27
2017-01-05T05:08:17.424Z,-1.27
2017-01-05T05:08:58.079Z,-1.29
2017-01-05T05:09:38.733Z,-1.27
2017-01-05T05:10:19.377Z,-1.27
2017-01-05T05:11:00.036Z,-1.2
2017-01-05T05:11:40.683Z,-1.22
2017-01-05T05:12:21.335Z,-1.22
2017-01-05T05:13:01.994Z,-1.25
2017-01-05T05:13:42.644Z,-1.29
2017-01-05T05:14:23.300Z,-1.27
2017-01-05T05:15:03.894Z,-1.29
2017-01-05T05:15:45.019Z,-1.25
2017-01-05T05:16:25.637Z,-1.19
2017-01-05T05:17:06.322Z,-1.26
2017-01-05T05:17:46.919Z,-1.23
2017-01-05T05:18:27.496Z,-1.22
2017-01-05T05:19:08.148Z,-1.25
2017-01-05T05:19:48.731Z,-1.23
2017-01-05T05:20:29.346Z,-1.23
2017-01-05T05:21:10.021Z,-1.3
2017-01-05T05:21:50.663Z,-1.23
2017-01-05T05:22:31.290Z,-1.23
2017-01-05T05:23:12.059Z,-1.22
2017-01-05T05:23:52.763Z,-1.17
2017-01-05T05:24:33.549Z,-1.25
2017-01-05T05:25:14.236Z,-1.25
2017-01-05T05:25:54.868Z,-1.23
2017-01-05T05:26:35.534Z,-1.27
2017-01-05T05:27:16.730Z,-1.26
2017-01-05T05:27:57.361Z,-1.33
2017-01-05T05:28:37.970Z,-1.32
2017-01-05T05:29:19.408Z,-1.33
2017-01-05T05:29:59.993Z,-1.37
2017-01-05T05:30:40.609Z,-1.33
2017-01-05T05:31:21.212Z,-1.32
2017-01-05T05:32:01.785Z,-1.29
2017-01-05T05:32:42.420Z,-1.44
2017-01-05T05:33:23.020Z,-1.32
2017-01-05T05:34:03.620Z,-1.38
2017-01-05T05:34:44.205Z,-1.37
2017-01-05T05:35:26.875Z,-1.4
2017-01-05T05:36:07.540Z,-1.35
2017-01-05T05:36:48.181Z,-1.35
2017-01-05T05:37:28.861Z,-1.33
2017-01-05T05:38:09.573Z,-1.35
2017-01-05T05:38:50.242Z,-1.32
2017-01-05T05:39:30.897Z,-1.32
2017-01-05T05:40:11.564Z,-1.43
2017-01-05T05:40:52.194Z,-1.27
2017-01-05T05:41:33.778Z,-1.3
2017-01-05T05:42:14.437Z,-1.27
2017-01-05T05:42:56.098Z,-1.35
2017-01-05T05:43:36.672Z,-1.35
2017-01-05T05:44:17.319Z,-1.35
2017-01-05T05:44:57.965Z,-1.33
2017-01-05T05:45:38.506Z,-1.33
2017-01-05T05:46:19.173Z,-1.33
2017-01-05T05:46:59.810Z,-1.33
2017-01-05T05:47:40.376Z,-1.35
2017-01-05T05:48:23.084Z,-1.3
2017-01-05T05:49:03.716Z,-1.33
2017-01-05T05:49:44.280Z,-1.3
2017-01-05T05:50:24.983Z,-1.37
2017-01-05T05:51:05.580Z,-1.37
2017-01-05T05:51:46.240Z,-1.32
2017-01-05T05:52:26.909Z,-1.32
2017-01-05T05:53:07.546Z,-1.43
2017-01-05T05:53:48.198Z,-1.35
2017-01-05T05:54:28.859Z,-1.35
2017-01-05T05:55:09.504Z,-1.41
2017-01-05T05:55:50.165Z,-1.37
2017-01-05T05:56:30.819Z,-1.37
2017-01-05T05:57:11.472Z,-1.33
2017-01-05T05:57:52.131Z,-1.33
2017-01-05T05:58:32.786Z,-1.41
2017-01-05T05:59:14.438Z,-1.43
2017-01-05T05:59:55.099Z,-1.37
2017-01-05T06:00:35.912Z,-1.4
2017-01-05T06:01:16.590Z,-1.47
2017-01-05T06:01:57.277Z,-1.48
2017-01-05T06:02:37.932Z,-1.41
2017-01-05T06:03:18.602Z,-1.44
2017-01-05T06:03:59.199Z,-1.48
2017-01-05T06:04:39.786Z,-1.53
2017-01-05T06:05:20.434Z,-1.58
2017-01-05T06:06:02.079Z,-1.54
2017-01-05T06:06:42.659Z,-1.54
2017-01-05T06:07:23.319Z,-1.58
2017-01-05T06:08:03.915Z,-1.58
2017-01-05T06:08:44.480Z,-1.58
2017-01-05T06:09:25.185Z,-1.56
2017-01-05T06:10:05.860Z,-1.53
2017-01-05T06:10:46.445Z,-1.56
2017-01-05T06:11:27.184Z,-1.56
2017-01-05T06:12:07.973Z,-1.54
2017-01-05T06:12:49.296Z,-1.47
2017-01-05T06:13:29.857Z,-1.56
2017-01-05T06:14:10.621Z,-1.56
2017-01-05T06:14:51.299Z,-1.53
2017-01-05T06:15:32.000Z,-1.51
2017-01-05T06:16:12.604Z,-1.51
2017-01-05T06:16:53.328Z,-1.53
2017-01-05T06:17:34.031Z,-1.53
2017-01-05T06:18:14.723Z,-1.48
2017-01-05T06:18:55.319Z,-1.51
2017-01-05T06:19:36.047Z,-1.5
2017-01-05T06:20:16.723Z,-1.5
2017-01-05T06:20:57.429Z,-1.5
2017-01-05T06:21:37.975Z,-1.62
2017-01-05T06:22:18.718Z,-1.53
2017-01-05T06:22:59.447Z,-1.56
2017-01-05T06:23:40.140Z,-1.51
2017-01-05T06:24:20.735Z,-1.51
2017-01-05T06:25:02.423Z,-1.59
2017-01-05T06:25:43.180Z,-1.65
2017-01-05T06:26:23.887Z,-1.65
2017-01-05T06:27:04.435Z,-1.64
2017-01-05T06:27:45.219Z,-1.61
2017-01-05T06:28:26.001Z,-1.65
2017-01-05T06:29:06.707Z,-1.68
2017-01-05T06:29:47.264Z,-1.71
2017-01-05T06:30:27.955Z,-1.68
2017-01-05T06:31:08.667Z,-1.68
2017-01-05T06:31:49.460Z,-1.68
2017-01-05T06:32:30.199Z,-1.74
2017-01-05T06:33:10.939Z,-1.76
2017-01-05T06:33:51.727Z,-1.77
2017-01-05T06:34:32.466Z,-1.74
2017-01-05T06:35:13.202Z,-1.74
2017-01-05T06:35:53.896Z,-1.71
2017-01-05T06:36:34.507Z,-1.72
2017-01-05T06:37:15.074Z,-1.74
2017-01-05T06:37:55.804Z,-1.74
2017-01-05T06:38:36.533Z,-1.74
2017-01-05T06:39:17.208Z,-1.79
2017-01-05T06:39:57.760Z,-1.74
2017-01-05T06:40:38.441Z,-1.72
2017-01-05T06:41:19.203Z,-1.79
2017-01-05T06:41:59.835Z,-1.74
2017-01-05T06:42:40.584Z,-1.84
2017-01-05T06:43:21.343Z,-1.72
2017-01-05T06:44:02.101Z,-1.76
2017-01-05T06:44:42.954Z,-1.76
2017-01-05T06:45:24.520Z,-1.8
2017-01-05T06:46:05.277Z,-1.82
2017-01-05T06:46:45.853Z,-1.82
2017-01-05T06:47:26.592Z,-1.77
2017-01-05T06:48:07.337Z,-1.8
2017-01-05T06:48:47.912Z,-1.77
2017-01-05T06:49:28.677Z,-1.84
2017-01-05T06:50:09.416Z,-1.86
2017-01-05T06:50:50.108Z,-1.86
2017-01-05T06:51:30.816Z,-1.89
2017-01-05T06:52:11.577Z,-1.89
2017-01-05T06:52:52.338Z,-1.89
2017-01-05T06:53:33.083Z,-1.92
2017-01-05T06:54:13.751Z,-1.98
2017-01-05T06:54:54.504Z,-2.05
2017-01-05T06:55:35.247Z,-2.01
2017-01-05T06:56:15.967Z,-1.97
2017-01-05T06:56:56.641Z,-2.02
2017-01-05T06:57:37.203Z,-2.1
2017-01-05T06:58:17.982Z,-2.05
2017-01-05T06:58:58.764Z,-2.1
2017-01-05T06:59:39.469Z,-2.1
2017-01-05T07:00:20.038Z,-2.12
2017-01-05T07:01:00.772Z,-2.1
2017-01-05T07:01:41.477Z,-2.15
2017-01-05T07:02:22.173Z,-2.16
2017-01-05T07:03:02.726Z,-2.16
2017-01-05T07:03:43.479Z,-2.16
2017-01-05T07:04:24.192Z,-2.22
2017-01-05T07:05:04.897Z,-2.22
2017-01-05T07:05:45.655Z,-2.3
2017-01-05T07:06:26.401Z,-2.34
2017-01-05T07:07:07.163Z,-2.25
2017-01-05T07:07:48.935Z,-2.28
2017-01-05T07:08:29.587Z,-2.26
2017-01-05T07:09:10.359Z,-2.34
2017-01-05T07:09:51.099Z,-2.37
2017-01-05T07:10:31.675Z,-2.34
2017-01-05T07:11:13.437Z,-2.26
2017-01-05T07:11:54.235Z,-2.26
2017-01-05T07:12:34.936Z,-2.28
2017-01-05T07:13:15.515Z,-2.28
2017-01-05T07:13:56.272Z,-2.25
2017-01-05T07:14:37.068Z,-2.26
2017-01-05T07:15:17.756Z,-2.35
2017-01-05T07:15:58.513Z,-2.35
2017-01-05T07:16:39.264Z,-2.44
2017-01-05T07:17:20.026Z,-2.4
2017-01-05T07:18:00.673Z,-2.44
2017-01-05T07:18:41.429Z,-2.38
2017-01-05T07:19:22.187Z,-2.44
2017-01-05T07:20:02.940Z,-2.42
2017-01-05T07:20:43.508Z,-2.45
2017-01-05T07:21:24.152Z,-2.4
2017-01-05T07:22:04.872Z,-2.45
2017-01-05T07:22:45.560Z,-2.41
2017-01-05T07:23:26.125Z,-2.45
2017-01-05T07:24:06.870Z,-2.44
2017-01-05T07:24:47.569Z,-2.48
2017-01-05T07:25:28.273Z,-2.4
2017-01-05T07:26:08.878Z,-2.41
2017-01-05T07:26:49.579Z,-2.48
2017-01-05T07:27:30.302Z,-2.44
2017-01-05T07:28:11.499Z,-2.5
2017-01-05T07:28:52.077Z,-2.47
2017-01-05T07:29:32.829Z,-2.5
2017-01-05T07:30:13.522Z,-2.5
2017-01-05T07:30:54.218Z,-2.5
2017-01-05T07:31:34.989Z,-2.5
2017-01-05T07:32:15.739Z,-2.47
2017-01-05T07:32:57.531Z,-2.5
2017-01-05T07:33:38.475Z,-2.5
2017-01-05T07:34:19.234Z,-2.44
2017-01-05T07:34:59.963Z,-2.48
2017-01-05T07:35:43.411Z,-2.53
2017-01-05T07:36:25.166Z,-2.48
2017-01-05T07:37:05.776Z,-2.45
2017-01-05T07:37:46.506Z,-2.5
2017-01-05T07:38:27.395Z,-2.47
2017-01-05T07:39:08.088Z,-2.48
2017-01-05T07:39:48.658Z,-2.47
2017-01-05T07:40:29.560Z,-2.53
2017-01-05T07:41:10.307Z,-2.44
2017-01-05T07:41:51.022Z,-2.52
2017-01-05T07:42:31.606Z,-2.45
2017-01-05T07:43:12.305Z,-2.45
2017-01-05T07:43:53.034Z,-2.48
2017-01-05T07:44:33.721Z,-2.44
2017-01-05T07:45:14.288Z,-2.47
2017-01-05T07:45:55.052Z,-2.47
2017-01-05T07:46:35.949Z,-2.44
2017-01-05T07:47:16.686Z,-2.45
2017-01-05T07:47:57.429Z,-2.44
2017-01-05T07:48:38.173Z,-2.48
2017-01-05T07:49:20.000Z,-2.45
2017-01-05T07:50:00.811Z,-2.44
2017-01-05T07:50:41.563Z,-2.42
2017-01-05T07:51:22.298Z,-2.44
2017-01-05T07:52:02.870Z,-2.5
2017-01-05T07:52:43.624Z,-2.44
2017-01-05T07:53:24.359Z,-2.48
2017-01-05T07:54:04.929Z,-2.45
2017-01-05T07:54:45.687Z,-2.47
2017-01-05T07:55:26.420Z,-2.45
2017-01-05T07:56:06.969Z,-2.45
2017-01-05T07:56:47.748Z,-2.4
2017-01-05T07:57:28.529Z,-2.47
2017-01-05T07:58:09.236Z,-2.44
2017-01-05T07:58:49.809Z,-2.42
2017-01-05T07:59:30.664Z,-2.44
2017-01-05T08:00:11.459Z,-2.4
2017-01-05T08:00:52.161Z,-2.45
2017-01-05T08:01:32.727Z,-2.42
2017-01-05T08:02:13.481Z,-2.47
2017-01-05T08:02:55.191Z,-2.44
2017-01-05T08:03:35.891Z,-2.45
2017-01-05T08:04:16.445Z,-2.4
2017-01-05T08:04:57.224Z,-2.44
2017-01-05T08:05:38.004Z,-2.38
2017-01-05T08:06:19.435Z,-2.28
2017-01-05T08:07:00.191Z,-2.38
2017-01-05T08:07:40.952Z,-2.41
2017-01-05T08:08:21.715Z,-2.32
2017-01-05T08:09:02.457Z,-2.47
2017-01-05T08:09:43.226Z,-2.38
2017-01-05T08:10:23.956Z,-2.42
2017-01-05T08:11:04.716Z,-2.45
2017-01-05T08:11:45.287Z,-2.41
2017-01-05T08:12:26.045Z,-2.42
2017-01-05T08:13:06.779Z,-2.48
2017-01-05T08:13:47.383Z,-2.35
2017-01-05T08:14:28.099Z,-2.38
2017-01-05T08:15:08.735Z,-2.25
2017-01-05T08:15:49.301Z,-2.4
2017-01-05T08:16:30.030Z,-2.26
2017-01-05T08:17:10.795Z,-2.3
2017-01-05T08:17:51.361Z,-2.32
2017-01-05T08:18:32.009Z,-2.26
2017-01-05T08:19:12.651Z,-2.26
2017-01-05T08:19:53.217Z,-2.28
2017-01-05T08:20:33.967Z,-2.28
2017-01-05T08:21:14.668Z,-2.25
2017-01-05T08:21:55.462Z,-2.28
2017-01-05T08:22:36.041Z,-2.28
2017-01-05T08:23:16.928Z,-2.32
2017-01-05T08:23:57.680Z,-2.21
2017-01-05T08:24:38.386Z,-2.21
2017-01-05T08:25:18.934Z,-2.22
2017-01-05T08:25:59.592Z,-2.22
2017-01-05T08:26:40.307Z,-2.19
2017-01-05T08:27:20.988Z,-2.19
2017-01-05T08:28:01.571Z,-2.15
2017-01-05T08:28:42.328Z,-2.19
2017-01-05T08:29:23.133Z,-2.19
2017-01-05T08:30:03.813Z,-2.13
2017-01-05T08:30:44.504Z,-2.18
2017-01-05T08:31:25.175Z,-2.13
2017-01-05T08:32:06.923Z,-2.18
2017-01-05T08:32:47.558Z,-2.07
2017-01-05T08:33:28.238Z,-2.16
2017-01-05T08:34:08.872Z,-2.13
2017-01-05T08:34:49.791Z,-2.05
2017-01-05T08:35:30.401Z,-2.04
2017-01-05T08:36:11.099Z,-2.1
2017-01-05T08:36:51.874Z,-2.05
2017-01-05T08:37:32.452Z,-2.04
2017-01-05T08:38:13.106Z,-2
2017-01-05T08:38:54.706Z,-1.97
2017-01-05T08:39:35.309Z,-1.98
2017-01-05T08:40:15.862Z,-1.97
2017-01-05T08:40:58.473Z,-1.87
2017-01-05T08:41:40.092Z,-1.89
2017-01-05T08:42:20.786Z,-1.89
2017-01-05T08:43:01.381Z,-1.89
2017-01-05T08:43:42.016Z,-1.89
2017-01-05T08:44:22.611Z,-1.84
2017-01-05T08:45:03.202Z,-1.79
2017-01-05T08:45:43.780Z,-1.82
2017-01-05T08:46:24.416Z,-1.83
2017-01-05T08:47:05.099Z,-1.82
2017-01-05T08:47:46.730Z,-1.76
2017-01-05T08:48:27.308Z,-1.64
2017-01-05T08:49:07.988Z,-1.72